sensor_id;sensor_type;location;lat;lon;timestamp;pressure;altitude;pressure_sealevel;temperature;humidity
9289;BME280;4683;50.864;12.086;2022-11-21T00:01:28;97820.81;;;2.85;100.00
9289;BME280;4683;50.864;12.086;2022-11-21T00:03:58;97820.50;;;2.88;100.00
9289;BME280;4683;50.864;12.086;2022-11-21T00:06:26;97817.91;;;2.96;100.00
9289;BME280;4683;50.864;12.086;2022-11-21T00:08:55;97820.03;;;3.01;100.00
9289;BME280;4683;50.864;12.086;2022-11-21T00:11:24;97812.84;;;2.95;100.00
9289;BME280;4683;50.864;12.086;2022-11-21T00:13:52;97811.91;;;2.96;100.00
9289;BME280;4683;50.864;12.086;2022-11-21T00:16:20;97812.03;;;3.11;100.00
9289;BME280;4683;50.864;12.086;2022-11-21T00:18:49;97799.97;;;3.18;100.00
9289;BME280;4683;50.864;12.086;2022-11-21T00:21:19;97791.34;;;3.25;100.00
9289;BME280;4683;50.864;12.086;2022-11-21T00:23:48;97790.66;;;3.31;100.00
9289;BME280;4683;50.864;12.086;2022-11-21T00:26:19;97792.13;;;3.34;100.00
9289;BME280;4683;50.864;12.086;2022-11-21T00:28:48;97792.44;;;3.39;100.00
9289;BME280;4683;50.864;12.086;2022-11-21T00:31:21;97793.56;;;3.45;100.00
9289;BME280;4683;50.864;12.086;2022-11-21T00:33:51;97786.91;;;3.50;100.00
9289;BME280;4683;50.864;12.086;2022-11-21T00:36:25;97784.75;;;3.54;100.00
9289;BME280;4683;50.864;12.086;2022-11-21T00:38:54;97776.59;;;3.57;100.00
9289;BME280;4683;50.864;12.086;2022-11-21T00:41:23;97777.06;;;3.61;100.00
9289;BME280;4683;50.864;12.086;2022-11-21T00:43:52;97771.19;;;3.67;100.00
9289;BME280;4683;50.864;12.086;2022-11-21T00:46:20;97761.06;;;3.72;100.00
9289;BME280;4683;50.864;12.086;2022-11-21T00:48:49;97761.34;;;3.77;100.00
9289;BME280;4683;50.864;12.086;2022-11-21T00:51:17;97753.91;;;3.66;100.00
9289;BME280;4683;50.864;12.086;2022-11-21T00:53:49;97745.63;;;3.54;100.00
9289;BME280;4683;50.864;12.086;2022-11-21T00:56:18;97744.31;;;3.58;100.00
9289;BME280;4683;50.864;12.086;2022-11-21T00:58:46;97740.19;;;3.72;100.00
9289;BME280;4683;50.864;12.086;2022-11-21T01:01:15;97729.63;;;3.65;100.00
9289;BME280;4683;50.864;12.086;2022-11-21T01:03:44;97725.78;;;3.53;100.00
9289;BME280;4683;50.864;12.086;2022-11-21T01:06:15;97720.88;;;3.58;100.00
9289;BME280;4683;50.864;12.086;2022-11-21T01:08:44;97708.34;;;3.53;100.00
9289;BME280;4683;50.864;12.086;2022-11-21T01:11:19;97710.13;;;3.53;100.00
9289;BME280;4683;50.864;12.086;2022-11-21T01:13:51;97707.16;;;3.64;100.00
9289;BME280;4683;50.864;12.086;2022-11-21T01:16:22;97703.09;;;3.62;100.00
9289;BME280;4683;50.864;12.086;2022-11-21T01:18:51;97692.22;;;3.81;100.00
9289;BME280;4683;50.864;12.086;2022-11-21T01:21:22;97700.78;;;3.98;100.00
9289;BME280;4683;50.864;12.086;2022-11-21T01:23:51;97703.88;;;4.01;100.00
9289;BME280;4683;50.864;12.086;2022-11-21T01:26:24;97703.53;;;4.04;100.00
9289;BME280;4683;50.864;12.086;2022-11-21T01:28:53;97699.41;;;4.10;100.00
9289;BME280;4683;50.864;12.086;2022-11-21T01:31:25;97696.22;;;4.23;100.00
9289;BME280;4683;50.864;12.086;2022-11-21T01:33:56;97698.59;;;4.32;100.00
9289;BME280;4683;50.864;12.086;2022-11-21T01:36:27;97694.94;;;4.42;100.00
9289;BME280;4683;50.864;12.086;2022-11-21T01:38:58;97691.00;;;4.46;100.00
9289;BME280;4683;50.864;12.086;2022-11-21T01:41:31;97682.09;;;4.55;100.00
9289;BME280;4683;50.864;12.086;2022-11-21T01:44:05;97688.75;;;4.57;100.00
9289;BME280;4683;50.864;12.086;2022-11-21T01:50:11;97683.53;;;4.57;100.00
9289;BME280;4683;50.864;12.086;2022-11-21T01:52:40;97685.00;;;4.60;100.00
9289;BME280;4683;50.864;12.086;2022-11-21T01:55:10;97678.06;;;4.67;100.00
9289;BME280;4683;50.864;12.086;2022-11-21T01:57:43;97672.16;;;4.73;100.00
9289;BME280;4683;50.864;12.086;2022-11-21T02:00:19;97671.16;;;4.74;100.00
9289;BME280;4683;50.864;12.086;2022-11-21T02:02:52;97674.50;;;4.83;100.00
9289;BME280;4683;50.864;12.086;2022-11-21T02:05:27;97667.13;;;4.87;100.00
9289;BME280;4683;50.864;12.086;2022-11-21T02:08:01;97669.19;;;4.91;100.00
9289;BME280;4683;50.864;12.086;2022-11-21T02:10:31;97663.25;;;4.97;100.00
9289;BME280;4683;50.864;12.086;2022-11-21T02:13:03;97668.28;;;4.99;100.00
9289;BME280;4683;50.864;12.086;2022-11-21T02:15:31;97660.81;;;4.96;100.00
9289;BME280;4683;50.864;12.086;2022-11-21T02:18:00;97656.84;;;5.00;100.00
9289;BME280;4683;50.864;12.086;2022-11-21T02:20:29;97664.50;;;4.87;100.00
9289;BME280;4683;50.864;12.086;2022-11-21T02:23:06;97658.91;;;4.90;100.00
9289;BME280;4683;50.864;12.086;2022-11-21T02:25:40;97653.25;;;5.01;100.00
9289;BME280;4683;50.864;12.086;2022-11-21T02:28:15;97651.72;;;5.06;100.00
9289;BME280;4683;50.864;12.086;2022-11-21T02:30:45;97661.69;;;5.03;100.00
9289;BME280;4683;50.864;12.086;2022-11-21T02:33:14;97663.31;;;4.89;100.00
9289;BME280;4683;50.864;12.086;2022-11-21T02:35:43;97660.97;;;4.94;100.00
9289;BME280;4683;50.864;12.086;2022-11-21T02:38:18;97658.16;;;4.81;100.00
9289;BME280;4683;50.864;12.086;2022-11-21T02:40:57;97653.59;;;4.68;100.00
9289;BME280;4683;50.864;12.086;2022-11-21T02:43:32;97643.69;;;4.78;100.00
9289;BME280;4683;50.864;12.086;2022-11-21T02:46:03;97651.06;;;4.90;100.00
9289;BME280;4683;50.864;12.086;2022-11-21T02:48:32;97643.50;;;4.95;100.00
9289;BME280;4683;50.864;12.086;2022-11-21T02:51:02;97636.56;;;5.02;100.00
9289;BME280;4683;50.864;12.086;2022-11-21T02:53:30;97641.69;;;4.80;100.00
9289;BME280;4683;50.864;12.086;2022-11-21T02:56:00;97637.53;;;4.71;100.00
9289;BME280;4683;50.864;12.086;2022-11-21T02:58:28;97628.81;;;4.79;100.00
9289;BME280;4683;50.864;12.086;2022-11-21T03:01:00;97633.03;;;4.95;100.00
9289;BME280;4683;50.864;12.086;2022-11-21T03:03:28;97638.72;;;4.98;100.00
9289;BME280;4683;50.864;12.086;2022-11-21T03:05:56;97633.34;;;5.00;100.00
9289;BME280;4683;50.864;12.086;2022-11-21T03:08:30;97626.31;;;5.00;100.00
9289;BME280;4683;50.864;12.086;2022-11-21T03:10:59;97634.75;;;5.02;100.00
9289;BME280;4683;50.864;12.086;2022-11-21T03:13:27;97631.16;;;5.03;100.00
9289;BME280;4683;50.864;12.086;2022-11-21T03:15:57;97631.06;;;4.97;100.00
9289;BME280;4683;50.864;12.086;2022-11-21T03:18:26;97628.72;;;5.02;100.00
9289;BME280;4683;50.864;12.086;2022-11-21T03:20:57;97637.19;;;5.04;100.00
9289;BME280;4683;50.864;12.086;2022-11-21T03:23:25;97633.88;;;5.10;100.00
9289;BME280;4683;50.864;12.086;2022-11-21T03:25:53;97639.81;;;5.19;100.00
9289;BME280;4683;50.864;12.086;2022-11-21T03:28:29;97641.16;;;5.29;100.00
9289;BME280;4683;50.864;12.086;2022-11-21T03:30:58;97636.38;;;5.33;100.00
9289;BME280;4683;50.864;12.086;2022-11-21T03:33:26;97638.25;;;5.39;100.00
9289;BME280;4683;50.864;12.086;2022-11-21T03:35:55;97636.34;;;5.48;100.00
9289;BME280;4683;50.864;12.086;2022-11-21T03:38:23;97640.66;;;5.55;100.00
9289;BME280;4683;50.864;12.086;2022-11-21T03:40:51;97642.63;;;5.53;100.00
9289;BME280;4683;50.864;12.086;2022-11-21T03:43:21;97641.66;;;5.40;100.00
9289;BME280;4683;50.864;12.086;2022-11-21T03:45:50;97651.06;;;5.34;100.00
9289;BME280;4683;50.864;12.086;2022-11-21T03:48:19;97646.47;;;5.21;100.00
9289;BME280;4683;50.864;12.086;2022-11-21T03:50:48;97643.94;;;5.13;100.00
9289;BME280;4683;50.864;12.086;2022-11-21T03:53:16;97647.09;;;5.23;100.00
9289;BME280;4683;50.864;12.086;2022-11-21T03:55:45;97648.00;;;5.30;100.00
9289;BME280;4683;50.864;12.086;2022-11-21T03:58:14;97651.25;;;5.32;100.00
9289;BME280;4683;50.864;12.086;2022-11-21T04:00:42;97648.78;;;5.31;100.00
9289;BME280;4683;50.864;12.086;2022-11-21T04:03:12;97652.41;;;5.30;100.00
9289;BME280;4683;50.864;12.086;2022-11-21T04:05:40;97646.19;;;5.31;100.00
9289;BME280;4683;50.864;12.086;2022-11-21T04:08:09;97646.03;;;5.32;100.00
9289;BME280;4683;50.864;12.086;2022-11-21T04:10:37;97655.84;;;5.30;100.00
9289;BME280;4683;50.864;12.086;2022-11-21T04:13:05;97657.47;;;5.31;100.00
9289;BME280;4683;50.864;12.086;2022-11-21T04:15:34;97649.63;;;5.17;100.00
9289;BME280;4683;50.864;12.086;2022-11-21T04:18:03;97660.19;;;5.23;100.00
9289;BME280;4683;50.864;12.086;2022-11-21T04:20:33;97661.06;;;5.16;100.00
9289;BME280;4683;50.864;12.086;2022-11-21T04:23:02;97669.63;;;4.95;100.00
9289;BME280;4683;50.864;12.086;2022-11-21T04:25:31;97659.91;;;4.89;100.00
9289;BME280;4683;50.864;12.086;2022-11-21T04:28:01;97664.84;;;4.83;100.00
9289;BME280;4683;50.864;12.086;2022-11-21T04:30:34;97663.84;;;4.84;100.00
9289;BME280;4683;50.864;12.086;2022-11-21T04:33:02;97668.63;;;4.81;100.00
9289;BME280;4683;50.864;12.086;2022-11-21T04:35:32;97669.72;;;4.87;100.00
9289;BME280;4683;50.864;12.086;2022-11-21T04:38:00;97665.84;;;4.82;100.00
9289;BME280;4683;50.864;12.086;2022-11-21T04:40:28;97669.06;;;4.84;100.00
9289;BME280;4683;50.864;12.086;2022-11-21T04:42:57;97671.16;;;4.74;100.00
9289;BME280;4683;50.864;12.086;2022-11-21T04:45:25;97676.09;;;4.69;100.00
9289;BME280;4683;50.864;12.086;2022-11-21T04:47:53;97683.84;;;4.77;100.00
9289;BME280;4683;50.864;12.086;2022-11-21T04:50:22;97693.50;;;4.77;100.00
9289;BME280;4683;50.864;12.086;2022-11-21T04:52:53;97694.53;;;4.68;100.00
9289;BME280;4683;50.864;12.086;2022-11-21T04:55:26;97708.44;;;4.68;100.00
9289;BME280;4683;50.864;12.086;2022-11-21T04:57:56;97717.00;;;4.54;100.00
9289;BME280;4683;50.864;12.086;2022-11-21T05:00:24;97721.81;;;4.27;100.00
9289;BME280;4683;50.864;12.086;2022-11-21T05:02:53;97722.31;;;4.00;100.00
9289;BME280;4683;50.864;12.086;2022-11-21T05:05:21;97720.41;;;3.86;100.00
9289;BME280;4683;50.864;12.086;2022-11-21T05:07:51;97718.19;;;3.74;100.00
9289;BME280;4683;50.864;12.086;2022-11-21T05:10:20;97724.44;;;3.65;100.00
9289;BME280;4683;50.864;12.086;2022-11-21T05:12:55;97733.69;;;3.28;100.00
9289;BME280;4683;50.864;12.086;2022-11-21T05:15:41;97734.66;;;3.27;100.00
9289;BME280;4683;50.864;12.086;2022-11-21T05:18:10;97746.25;;;3.17;100.00
9289;BME280;4683;50.864;12.086;2022-11-21T05:20:38;97736.00;;;3.07;100.00
9289;BME280;4683;50.864;12.086;2022-11-21T05:23:08;97741.88;;;3.09;100.00
9289;BME280;4683;50.864;12.086;2022-11-21T05:25:36;97759.94;;;2.94;100.00
9289;BME280;4683;50.864;12.086;2022-11-21T05:28:05;97767.94;;;2.85;100.00
9289;BME280;4683;50.864;12.086;2022-11-21T05:30:33;97782.75;;;2.76;100.00
9289;BME280;4683;50.864;12.086;2022-11-21T05:33:03;97774.94;;;2.60;100.00
9289;BME280;4683;50.864;12.086;2022-11-21T05:35:31;97782.88;;;2.34;100.00
9289;BME280;4683;50.864;12.086;2022-11-21T05:38:00;97784.81;;;2.23;100.00
9289;BME280;4683;50.864;12.086;2022-11-21T05:40:29;97794.69;;;2.12;100.00
9289;BME280;4683;50.864;12.086;2022-11-21T05:42:58;97795.13;;;1.91;100.00
9289;BME280;4683;50.864;12.086;2022-11-21T05:45:43;97811.72;;;1.98;100.00
9289;BME280;4683;50.864;12.086;2022-11-21T05:48:12;97810.69;;;1.83;100.00
9289;BME280;4683;50.864;12.086;2022-11-21T05:50:40;97818.28;;;1.76;100.00
9289;BME280;4683;50.864;12.086;2022-11-21T05:53:08;97820.66;;;1.61;100.00
9289;BME280;4683;50.864;12.086;2022-11-21T05:55:38;97837.81;;;1.46;100.00
9289;BME280;4683;50.864;12.086;2022-11-21T05:58:06;97845.22;;;1.41;100.00
9289;BME280;4683;50.864;12.086;2022-11-21T06:00:36;97836.00;;;1.20;100.00
9289;BME280;4683;50.864;12.086;2022-11-21T06:03:05;97844.63;;;1.21;100.00
9289;BME280;4683;50.864;12.086;2022-11-21T06:05:51;97844.06;;;1.09;100.00
9289;BME280;4683;50.864;12.086;2022-11-21T06:08:19;97847.84;;;0.97;100.00
9289;BME280;4683;50.864;12.086;2022-11-21T06:10:50;97850.34;;;1.07;100.00
9289;BME280;4683;50.864;12.086;2022-11-21T06:13:18;97851.25;;;0.97;100.00
9289;BME280;4683;50.864;12.086;2022-11-21T06:15:57;97848.81;;;0.96;100.00
9289;BME280;4683;50.864;12.086;2022-11-21T06:18:27;97856.34;;;1.07;100.00
9289;BME280;4683;50.864;12.086;2022-11-21T06:21:04;97861.63;;;1.15;100.00
9289;BME280;4683;50.864;12.086;2022-11-21T06:23:34;97876.91;;;1.18;100.00
9289;BME280;4683;50.864;12.086;2022-11-21T06:26:06;97882.47;;;1.23;100.00
9289;BME280;4683;50.864;12.086;2022-11-21T06:28:38;97889.28;;;1.24;100.00
9289;BME280;4683;50.864;12.086;2022-11-21T06:31:08;97903.59;;;1.29;100.00
9289;BME280;4683;50.864;12.086;2022-11-21T06:33:38;97900.84;;;1.30;100.00
9289;BME280;4683;50.864;12.086;2022-11-21T06:36:08;97906.56;;;1.34;100.00
9289;BME280;4683;50.864;12.086;2022-11-21T06:38:37;97911.47;;;1.37;100.00
9289;BME280;4683;50.864;12.086;2022-11-21T06:41:10;97923.94;;;1.33;100.00
9289;BME280;4683;50.864;12.086;2022-11-21T06:43:39;97921.78;;;1.29;100.00
9289;BME280;4683;50.864;12.086;2022-11-21T06:46:07;97925.19;;;1.29;100.00
9289;BME280;4683;50.864;12.086;2022-11-21T06:48:37;97936.09;;;1.33;100.00
9289;BME280;4683;50.864;12.086;2022-11-21T06:51:07;97934.44;;;1.32;100.00
9289;BME280;4683;50.864;12.086;2022-11-21T06:53:38;97933.78;;;1.30;100.00
9289;BME280;4683;50.864;12.086;2022-11-21T06:56:08;97949.31;;;1.21;100.00
9289;BME280;4683;50.864;12.086;2022-11-21T06:58:36;97946.78;;;1.30;100.00
9289;BME280;4683;50.864;12.086;2022-11-21T07:01:07;97944.47;;;1.26;100.00
9289;BME280;4683;50.864;12.086;2022-11-21T07:03:36;97950.34;;;1.29;100.00
9289;BME280;4683;50.864;12.086;2022-11-21T07:06:05;97961.09;;;1.34;100.00
9289;BME280;4683;50.864;12.086;2022-11-21T07:08:35;97962.06;;;1.33;100.00
9289;BME280;4683;50.864;12.086;2022-11-21T07:11:07;97973.56;;;1.30;100.00
9289;BME280;4683;50.864;12.086;2022-11-21T07:13:36;97971.34;;;1.35;100.00
9289;BME280;4683;50.864;12.086;2022-11-21T07:16:07;97975.94;;;1.41;100.00
9289;BME280;4683;50.864;12.086;2022-11-21T07:18:37;97974.69;;;1.45;100.00
9289;BME280;4683;50.864;12.086;2022-11-21T07:21:06;97973.91;;;1.53;100.00
9289;BME280;4683;50.864;12.086;2022-11-21T07:23:36;97984.69;;;1.58;100.00
9289;BME280;4683;50.864;12.086;2022-11-21T07:26:09;97990.03;;;1.57;100.00
9289;BME280;4683;50.864;12.086;2022-11-21T07:28:39;97991.53;;;1.59;100.00
9289;BME280;4683;50.864;12.086;2022-11-21T07:31:09;97997.66;;;1.58;100.00
9289;BME280;4683;50.864;12.086;2022-11-21T07:33:37;98004.28;;;1.52;100.00
9289;BME280;4683;50.864;12.086;2022-11-21T07:36:06;98013.88;;;1.52;100.00
9289;BME280;4683;50.864;12.086;2022-11-21T07:38:35;98012.38;;;1.49;100.00
9289;BME280;4683;50.864;12.086;2022-11-21T07:41:08;98015.50;;;1.53;100.00
9289;BME280;4683;50.864;12.086;2022-11-21T07:43:37;98025.38;;;1.49;100.00
9289;BME280;4683;50.864;12.086;2022-11-21T07:46:05;98023.44;;;1.51;100.00
9289;BME280;4683;50.864;12.086;2022-11-21T07:48:36;98018.25;;;1.34;100.00
9289;BME280;4683;50.864;12.086;2022-11-21T07:51:05;98014.22;;;1.39;100.00
9289;BME280;4683;50.864;12.086;2022-11-21T07:53:35;98017.50;;;1.41;100.00
9289;BME280;4683;50.864;12.086;2022-11-21T07:56:04;98018.53;;;1.48;100.00
9289;BME280;4683;50.864;12.086;2022-11-21T07:58:36;98010.53;;;1.42;100.00
9289;BME280;4683;50.864;12.086;2022-11-21T08:01:05;98013.13;;;1.42;100.00
9289;BME280;4683;50.864;12.086;2022-11-21T08:03:34;98026.78;;;1.44;100.00
9289;BME280;4683;50.864;12.086;2022-11-21T08:06:04;98028.28;;;1.46;100.00
9289;BME280;4683;50.864;12.086;2022-11-21T08:08:33;98033.16;;;1.49;100.00
9289;BME280;4683;50.864;12.086;2022-11-21T08:11:04;98040.13;;;1.49;100.00
9289;BME280;4683;50.864;12.086;2022-11-21T08:13:36;98047.19;;;1.39;100.00
9289;BME280;4683;50.864;12.086;2022-11-21T08:16:05;98036.63;;;1.40;100.00
9289;BME280;4683;50.864;12.086;2022-11-21T08:18:34;98038.78;;;1.45;100.00
9289;BME280;4683;50.864;12.086;2022-11-21T08:21:03;98032.66;;;1.46;100.00
9289;BME280;4683;50.864;12.086;2022-11-21T08:23:32;98038.22;;;1.51;100.00
9289;BME280;4683;50.864;12.086;2022-11-21T08:26:00;98033.03;;;1.51;100.00
9289;BME280;4683;50.864;12.086;2022-11-21T08:28:29;98034.44;;;1.45;100.00
9289;BME280;4683;50.864;12.086;2022-11-21T08:31:03;98034.28;;;1.47;100.00
9289;BME280;4683;50.864;12.086;2022-11-21T08:33:32;98043.09;;;1.36;100.00
9289;BME280;4683;50.864;12.086;2022-11-21T08:36:03;98046.44;;;1.29;100.00
9289;BME280;4683;50.864;12.086;2022-11-21T08:38:33;98049.34;;;1.25;100.00
9289;BME280;4683;50.864;12.086;2022-11-21T08:41:02;98049.03;;;1.29;100.00
9289;BME280;4683;50.864;12.086;2022-11-21T08:43:48;98043.09;;;1.36;100.00
9289;BME280;4683;50.864;12.086;2022-11-21T08:46:18;98051.41;;;1.40;100.00
9289;BME280;4683;50.864;12.086;2022-11-21T08:48:49;98048.81;;;1.40;100.00
9289;BME280;4683;50.864;12.086;2022-11-21T08:51:17;98050.84;;;1.46;100.00
9289;BME280;4683;50.864;12.086;2022-11-21T08:53:46;98056.31;;;1.43;100.00
9289;BME280;4683;50.864;12.086;2022-11-21T08:56:17;98058.31;;;1.49;100.00
9289;BME280;4683;50.864;12.086;2022-11-21T08:58:46;98058.25;;;1.41;100.00
9289;BME280;4683;50.864;12.086;2022-11-21T09:01:15;98051.78;;;1.45;100.00
9289;BME280;4683;50.864;12.086;2022-11-21T09:03:45;98057.16;;;1.61;100.00
9289;BME280;4683;50.864;12.086;2022-11-21T09:06:14;98049.34;;;1.61;100.00
9289;BME280;4683;50.864;12.086;2022-11-21T09:08:43;98050.91;;;1.54;100.00
9289;BME280;4683;50.864;12.086;2022-11-21T09:11:11;98047.28;;;1.47;100.00
9289;BME280;4683;50.864;12.086;2022-11-21T09:13:40;98043.41;;;1.51;100.00
9289;BME280;4683;50.864;12.086;2022-11-21T09:16:11;98048.97;;;1.56;100.00
9289;BME280;4683;50.864;12.086;2022-11-21T09:18:59;98060.47;;;1.71;100.00
9289;BME280;4683;50.864;12.086;2022-11-21T09:21:28;98067.38;;;1.81;100.00
9289;BME280;4683;50.864;12.086;2022-11-21T09:23:56;98058.03;;;1.88;100.00
9289;BME280;4683;50.864;12.086;2022-11-21T09:26:25;98058.13;;;2.04;100.00
9289;BME280;4683;50.864;12.086;2022-11-21T09:28:54;98068.31;;;2.15;100.00
9289;BME280;4683;50.864;12.086;2022-11-21T09:31:23;98065.59;;;2.25;100.00
9289;BME280;4683;50.864;12.086;2022-11-21T09:33:51;98072.25;;;2.19;100.00
9289;BME280;4683;50.864;12.086;2022-11-21T09:36:26;98073.88;;;2.46;100.00
9289;BME280;4683;50.864;12.086;2022-11-21T09:38:55;98076.31;;;2.48;100.00
9289;BME280;4683;50.864;12.086;2022-11-21T09:41:31;98085.34;;;2.62;100.00
9289;BME280;4683;50.864;12.086;2022-11-21T09:47:32;98094.78;;;2.63;100.00
9289;BME280;4683;50.864;12.086;2022-11-21T09:50:06;98100.34;;;2.68;100.00
9289;BME280;4683;50.864;12.086;2022-11-21T09:52:49;98104.47;;;2.78;100.00
9289;BME280;4683;50.864;12.086;2022-11-21T09:55:28;98107.69;;;2.72;100.00
9289;BME280;4683;50.864;12.086;2022-11-21T09:58:02;98103.81;;;2.76;100.00
9289;BME280;4683;50.864;12.086;2022-11-21T10:00:32;98109.28;;;2.65;100.00
9289;BME280;4683;50.864;12.086;2022-11-21T10:03:01;98101.59;;;2.90;100.00
9289;BME280;4683;50.864;12.086;2022-11-21T10:05:35;98098.72;;;3.01;100.00
9289;BME280;4683;50.864;12.086;2022-11-21T10:08:17;98095.78;;;3.04;100.00
9289;BME280;4683;50.864;12.086;2022-11-21T10:10:55;98099.31;;;3.29;100.00
9289;BME280;4683;50.864;12.086;2022-11-21T10:13:41;98100.25;;;3.20;100.00
9289;BME280;4683;50.864;12.086;2022-11-21T10:16:20;98095.44;;;2.91;100.00
9289;BME280;4683;50.864;12.086;2022-11-21T10:19:23;98096.09;;;2.93;100.00
9289;BME280;4683;50.864;12.086;2022-11-21T10:22:36;98092.22;;;3.05;100.00
9289;BME280;4683;50.864;12.086;2022-11-21T10:25:13;98097.19;;;3.24;100.00
9289;BME280;4683;50.864;12.086;2022-11-21T10:27:48;98104.81;;;3.26;100.00
9289;BME280;4683;50.864;12.086;2022-11-21T10:30:20;98094.66;;;3.07;100.00
9289;BME280;4683;50.864;12.086;2022-11-21T10:32:51;98098.38;;;2.96;100.00
9289;BME280;4683;50.864;12.086;2022-11-21T10:35:24;98086.00;;;2.98;100.00
9289;BME280;4683;50.864;12.086;2022-11-21T10:37:56;98096.81;;;3.11;100.00
9289;BME280;4683;50.864;12.086;2022-11-21T10:40:34;98089.06;;;3.36;100.00
9289;BME280;4683;50.864;12.086;2022-11-21T10:43:08;98081.13;;;3.53;100.00
9289;BME280;4683;50.864;12.086;2022-11-21T10:46:02;98089.59;;;3.55;100.00
9289;BME280;4683;50.864;12.086;2022-11-21T10:48:31;98090.41;;;3.56;100.00
9289;BME280;4683;50.864;12.086;2022-11-21T10:51:13;98089.75;;;3.46;100.00
9289;BME280;4683;50.864;12.086;2022-11-21T10:53:47;98081.59;;;3.49;100.00
9289;BME280;4683;50.864;12.086;2022-11-21T10:56:48;98069.88;;;3.53;100.00
9289;BME280;4683;50.864;12.086;2022-11-21T10:59:23;98075.09;;;3.61;100.00
9289;BME280;4683;50.864;12.086;2022-11-21T11:01:58;98067.31;;;3.77;100.00
9289;BME280;4683;50.864;12.086;2022-11-21T11:04:29;98070.22;;;3.74;100.00
9289;BME280;4683;50.864;12.086;2022-11-21T11:07:20;98070.56;;;3.79;100.00
9289;BME280;4683;50.864;12.086;2022-11-21T11:09:49;98068.28;;;4.01;100.00
9289;BME280;4683;50.864;12.086;2022-11-21T11:12:38;98078.88;;;4.07;100.00
9289;BME280;4683;50.864;12.086;2022-11-21T11:15:33;98068.44;;;4.07;100.00
9289;BME280;4683;50.864;12.086;2022-11-21T11:18:04;98071.56;;;3.87;100.00
9289;BME280;4683;50.864;12.086;2022-11-21T11:20:36;98063.22;;;3.75;100.00
9289;BME280;4683;50.864;12.086;2022-11-21T11:23:25;98051.66;;;3.94;100.00
9289;BME280;4683;50.864;12.086;2022-11-21T11:25:55;98058.03;;;3.83;100.00
9289;BME280;4683;50.864;12.086;2022-11-21T11:28:34;98056.22;;;3.59;100.00
9289;BME280;4683;50.864;12.086;2022-11-21T11:31:02;98052.78;;;3.75;100.00
9289;BME280;4683;50.864;12.086;2022-11-21T11:33:34;98049.03;;;3.94;100.00
9289;BME280;4683;50.864;12.086;2022-11-21T11:36:13;98042.16;;;4.17;100.00
9289;BME280;4683;50.864;12.086;2022-11-21T11:38:51;98038.91;;;4.31;100.00
9289;BME280;4683;50.864;12.086;2022-11-21T11:41:51;98044.75;;;4.33;100.00
9289;BME280;4683;50.864;12.086;2022-11-21T11:44:57;98048.69;;;4.38;100.00
9289;BME280;4683;50.864;12.086;2022-11-21T11:47:55;98042.16;;;4.42;100.00
9289;BME280;4683;50.864;12.086;2022-11-21T11:50:30;98040.38;;;4.26;100.00
9289;BME280;4683;50.864;12.086;2022-11-21T11:53:06;98041.19;;;4.26;100.00
9289;BME280;4683;50.864;12.086;2022-11-21T11:55:43;98038.06;;;4.39;100.00
9289;BME280;4683;50.864;12.086;2022-11-21T11:58:21;98041.16;;;4.43;100.00
9289;BME280;4683;50.864;12.086;2022-11-21T12:00:59;98051.91;;;4.40;100.00
9289;BME280;4683;50.864;12.086;2022-11-21T12:03:41;98053.41;;;4.34;100.00
9289;BME280;4683;50.864;12.086;2022-11-21T12:06:15;98044.13;;;4.31;100.00
9289;BME280;4683;50.864;12.086;2022-11-21T12:08:52;98052.78;;;4.24;100.00
9289;BME280;4683;50.864;12.086;2022-11-21T12:11:28;98052.63;;;4.09;100.00
9289;BME280;4683;50.864;12.086;2022-11-21T12:14:42;98049.03;;;3.86;100.00
9289;BME280;4683;50.864;12.086;2022-11-21T12:17:33;98051.16;;;3.66;100.00
9289;BME280;4683;50.864;12.086;2022-11-21T12:20:14;98049.03;;;3.86;100.00
9289;BME280;4683;50.864;12.086;2022-11-21T12:22:47;98040.41;;;4.01;100.00
9289;BME280;4683;50.864;12.086;2022-11-21T12:25:29;98040.41;;;4.10;100.00
9289;BME280;4683;50.864;12.086;2022-11-21T12:27:58;98045.59;;;4.26;100.00
9289;BME280;4683;50.864;12.086;2022-11-21T12:30:53;98038.25;;;4.21;100.00
9289;BME280;4683;50.864;12.086;2022-11-21T12:33:26;98036.94;;;4.33;100.00
9289;BME280;4683;50.864;12.086;2022-11-21T12:36:15;98027.81;;;4.29;100.00
9289;BME280;4683;50.864;12.086;2022-11-21T12:39:04;98027.81;;;4.21;100.00
9289;BME280;4683;50.864;12.086;2022-11-21T12:41:41;98021.91;;;4.36;100.00
9289;BME280;4683;50.864;12.086;2022-11-21T12:44:53;98020.66;;;4.23;100.00
9289;BME280;4683;50.864;12.086;2022-11-21T12:50:51;98023.94;;;4.09;100.00
9289;BME280;4683;50.864;12.086;2022-11-21T12:53:50;98014.94;;;4.03;100.00
9289;BME280;4683;50.864;12.086;2022-11-21T12:56:44;98016.28;;;3.75;100.00
9289;BME280;4683;50.864;12.086;2022-11-21T12:59:19;98008.91;;;4.03;100.00
9289;BME280;4683;50.864;12.086;2022-11-21T13:01:55;98006.63;;;4.16;100.00
9289;BME280;4683;50.864;12.086;2022-11-21T13:04:30;98006.50;;;3.93;100.00
9289;BME280;4683;50.864;12.086;2022-11-21T13:07:03;97999.81;;;3.83;100.00
9289;BME280;4683;50.864;12.086;2022-11-21T13:09:39;97989.38;;;3.58;100.00
9289;BME280;4683;50.864;12.086;2022-11-21T13:12:17;97987.28;;;3.37;100.00
9289;BME280;4683;50.864;12.086;2022-11-21T13:14:54;97977.66;;;3.62;100.00
9289;BME280;4683;50.864;12.086;2022-11-21T13:17:40;97967.22;;;3.78;100.00
9289;BME280;4683;50.864;12.086;2022-11-21T13:20:30;97972.59;;;3.77;100.00
9289;BME280;4683;50.864;12.086;2022-11-21T13:23:02;97962.34;;;3.67;100.00
9289;BME280;4683;50.864;12.086;2022-11-21T13:25:43;97967.22;;;3.78;100.00
9289;BME280;4683;50.864;12.086;2022-11-21T13:28:38;97968.84;;;3.88;100.00
9289;BME280;4683;50.864;12.086;2022-11-21T13:31:30;97972.75;;;3.84;100.00
9289;BME280;4683;50.864;12.086;2022-11-21T13:34:00;97969.97;;;4.01;100.00
9289;BME280;4683;50.864;12.086;2022-11-21T13:36:50;97968.03;;;3.87;100.00
9289;BME280;4683;50.864;12.086;2022-11-21T13:39:30;97968.16;;;4.02;100.00
9289;BME280;4683;50.864;12.086;2022-11-21T13:42:09;97975.69;;;3.97;100.00
9289;BME280;4683;50.864;12.086;2022-11-21T13:44:56;97974.19;;;4.11;100.00
9289;BME280;4683;50.864;12.086;2022-11-21T13:51:25;97969.03;;;3.78;100.00
9289;BME280;4683;50.864;12.086;2022-11-21T13:54:55;97965.22;;;4.05;100.00
9289;BME280;4683;50.864;12.086;2022-11-21T13:57:41;97957.09;;;4.00;100.00